sensor_id;sensor_type;location;lat;lon;timestamp;P1;durP1;ratioP1;P2;durP2;ratioP2
66523;SDS011;53350;52.210;5.160;2022-12-20T00:02:10;6.50;;;3.28;;
66523;SDS011;53350;52.210;5.160;2022-12-20T00:04:37;7.00;;;3.55;;
66523;SDS011;53350;52.210;5.160;2022-12-20T00:07:03;7.25;;;3.20;;
66523;SDS011;53350;52.210;5.160;2022-12-20T00:09:29;6.75;;;2.70;;
66523;SDS011;53350;52.210;5.160;2022-12-20T00:11:56;8.43;;;3.20;;
66523;SDS011;53350;52.210;5.160;2022-12-20T00:14:22;9.10;;;3.10;;
66523;SDS011;53350;52.210;5.160;2022-12-20T00:16:49;12.57;;;3.10;;
66523;SDS011;53350;52.210;5.160;2022-12-20T00:19:16;6.93;;;3.30;;
66523;SDS011;53350;52.210;5.160;2022-12-20T00:21:43;6.68;;;3.05;;
66523;SDS011;53350;52.210;5.160;2022-12-20T00:24:09;9.57;;;3.40;;
66523;SDS011;53350;52.210;5.160;2022-12-20T00:26:36;10.50;;;3.33;;
66523;SDS011;53350;52.210;5.160;2022-12-20T00:29:03;7.82;;;3.20;;
66523;SDS011;53350;52.210;5.160;2022-12-20T00:31:30;7.53;;;3.00;;
66523;SDS011;53350;52.210;5.160;2022-12-20T00:33:57;9.50;;;3.10;;
66523;SDS011;53350;52.210;5.160;2022-12-20T00:36:27;8.93;;;3.25;;
66523;SDS011;53350;52.210;5.160;2022-12-20T00:38:55;7.78;;;3.42;;
66523;SDS011;53350;52.210;5.160;2022-12-20T00:41:24;7.03;;;3.08;;
66523;SDS011;53350;52.210;5.160;2022-12-20T00:43:51;7.05;;;2.83;;
66523;SDS011;53350;52.210;5.160;2022-12-20T00:46:19;7.22;;;3.13;;
66523;SDS011;53350;52.210;5.160;2022-12-20T00:48:47;7.20;;;3.15;;
66523;SDS011;53350;52.210;5.160;2022-12-20T00:51:15;6.97;;;3.10;;
66523;SDS011;53350;52.210;5.160;2022-12-20T00:53:43;7.78;;;2.90;;
66523;SDS011;53350;52.210;5.160;2022-12-20T00:56:11;6.68;;;2.90;;
66523;SDS011;53350;52.210;5.160;2022-12-20T00:58:39;5.45;;;2.70;;
66523;SDS011;53350;52.210;5.160;2022-12-20T01:01:15;7.38;;;3.00;;
66523;SDS011;53350;52.210;5.160;2022-12-20T01:03:44;7.45;;;2.88;;
66523;SDS011;53350;52.210;5.160;2022-12-20T01:06:11;7.15;;;2.85;;
66523;SDS011;53350;52.210;5.160;2022-12-20T01:08:37;6.10;;;2.50;;
66523;SDS011;53350;52.210;5.160;2022-12-20T01:11:06;9.13;;;2.95;;
66523;SDS011;53350;52.210;5.160;2022-12-20T01:13:36;7.30;;;2.95;;
66523;SDS011;53350;52.210;5.160;2022-12-20T01:16:06;7.10;;;2.83;;
66523;SDS011;53350;52.210;5.160;2022-12-20T01:18:34;8.80;;;3.20;;
66523;SDS011;53350;52.210;5.160;2022-12-20T01:21:01;6.43;;;2.85;;
66523;SDS011;53350;52.210;5.160;2022-12-20T01:23:28;7.77;;;3.33;;
66523;SDS011;53350;52.210;5.160;2022-12-20T01:25:56;7.72;;;3.40;;
66523;SDS011;53350;52.210;5.160;2022-12-20T01:30:50;7.28;;;2.63;;
66523;SDS011;53350;52.210;5.160;2022-12-20T01:33:17;7.00;;;2.90;;
66523;SDS011;53350;52.210;5.160;2022-12-20T01:35:53;7.47;;;3.10;;
66523;SDS011;53350;52.210;5.160;2022-12-20T01:38:20;8.57;;;3.42;;
66523;SDS011;53350;52.210;5.160;2022-12-20T01:40:46;8.82;;;3.13;;
66523;SDS011;53350;52.210;5.160;2022-12-20T01:43:13;9.52;;;3.13;;
66523;SDS011;53350;52.210;5.160;2022-12-20T01:45:43;9.00;;;3.20;;
66523;SDS011;53350;52.210;5.160;2022-12-20T01:48:10;7.00;;;2.97;;
66523;SDS011;53350;52.210;5.160;2022-12-20T01:50:38;7.75;;;2.90;;
66523;SDS011;53350;52.210;5.160;2022-12-20T01:53:05;7.30;;;2.92;;
66523;SDS011;53350;52.210;5.160;2022-12-20T01:55:31;10.40;;;3.50;;
66523;SDS011;53350;52.210;5.160;2022-12-20T01:57:58;7.50;;;3.05;;
66523;SDS011;53350;52.210;5.160;2022-12-20T02:02:55;7.20;;;3.20;;
66523;SDS011;53350;52.210;5.160;2022-12-20T02:05:25;6.30;;;2.60;;
66523;SDS011;53350;52.210;5.160;2022-12-20T02:07:52;5.80;;;2.42;;
66523;SDS011;53350;52.210;5.160;2022-12-20T02:12:49;6.35;;;2.72;;
66523;SDS011;53350;52.210;5.160;2022-12-20T02:15:29;6.68;;;2.90;;
66523;SDS011;53350;52.210;5.160;2022-12-20T02:18:07;9.73;;;2.90;;
66523;SDS011;53350;52.210;5.160;2022-12-20T02:20:50;9.95;;;3.00;;
66523;SDS011;53350;52.210;5.160;2022-12-20T02:23:32;6.65;;;3.30;;
66523;SDS011;53350;52.210;5.160;2022-12-20T02:26:18;6.07;;;2.97;;
66523;SDS011;53350;52.210;5.160;2022-12-20T02:29:01;8.73;;;2.95;;
66523;SDS011;53350;52.210;5.160;2022-12-20T02:31:45;9.93;;;3.67;;
66523;SDS011;53350;52.210;5.160;2022-12-20T02:34:16;8.15;;;2.92;;
66523;SDS011;53350;52.210;5.160;2022-12-20T02:36:45;11.07;;;3.20;;
66523;SDS011;53350;52.210;5.160;2022-12-20T02:39:12;10.93;;;3.47;;
66523;SDS011;53350;52.210;5.160;2022-12-20T02:41:42;9.52;;;3.25;;
66523;SDS011;53350;52.210;5.160;2022-12-20T02:44:13;7.10;;;3.17;;
66523;SDS011;53350;52.210;5.160;2022-12-20T02:47:01;8.60;;;3.60;;
66523;SDS011;53350;52.210;5.160;2022-12-20T02:49:31;7.95;;;3.10;;
66523;SDS011;53350;52.210;5.160;2022-12-20T02:52:02;7.80;;;3.10;;
66523;SDS011;53350;52.210;5.160;2022-12-20T02:54:30;8.23;;;3.53;;
66523;SDS011;53350;52.210;5.160;2022-12-20T02:56:59;8.15;;;3.38;;
66523;SDS011;53350;52.210;5.160;2022-12-20T02:59:31;7.68;;;3.42;;
66523;SDS011;53350;52.210;5.160;2022-12-20T03:02:04;6.85;;;3.25;;
66523;SDS011;53350;52.210;5.160;2022-12-20T03:04:34;8.10;;;3.25;;
66523;SDS011;53350;52.210;5.160;2022-12-20T03:07:05;7.72;;;2.75;;
66523;SDS011;53350;52.210;5.160;2022-12-20T03:09:33;7.07;;;3.20;;
66523;SDS011;53350;52.210;5.160;2022-12-20T03:12:01;8.43;;;3.50;;
66523;SDS011;53350;52.210;5.160;2022-12-20T03:14:28;8.70;;;3.33;;
66523;SDS011;53350;52.210;5.160;2022-12-20T03:16:54;6.57;;;2.53;;
66523;SDS011;53350;52.210;5.160;2022-12-20T03:19:22;6.05;;;2.88;;
66523;SDS011;53350;52.210;5.160;2022-12-20T03:21:49;6.45;;;3.10;;
66523;SDS011;53350;52.210;5.160;2022-12-20T03:24:15;9.65;;;3.30;;
66523;SDS011;53350;52.210;5.160;2022-12-20T03:26:42;7.20;;;3.10;;
66523;SDS011;53350;52.210;5.160;2022-12-20T03:29:09;7.40;;;2.80;;
66523;SDS011;53350;52.210;5.160;2022-12-20T03:31:35;5.85;;;2.60;;
66523;SDS011;53350;52.210;5.160;2022-12-20T03:34:02;8.30;;;3.10;;
66523;SDS011;53350;52.210;5.160;2022-12-20T03:36:30;7.45;;;2.92;;
66523;SDS011;53350;52.210;5.160;2022-12-20T03:38:57;6.95;;;2.88;;
66523;SDS011;53350;52.210;5.160;2022-12-20T03:41:23;9.02;;;3.40;;
66523;SDS011;53350;52.210;5.160;2022-12-20T03:43:50;7.57;;;3.00;;
66523;SDS011;53350;52.210;5.160;2022-12-20T03:46:17;7.80;;;3.30;;
66523;SDS011;53350;52.210;5.160;2022-12-20T03:48:43;6.38;;;3.10;;
66523;SDS011;53350;52.210;5.160;2022-12-20T03:51:10;9.52;;;3.30;;
66523;SDS011;53350;52.210;5.160;2022-12-20T03:53:37;6.18;;;2.67;;
66523;SDS011;53350;52.210;5.160;2022-12-20T03:56:04;8.10;;;3.17;;
66523;SDS011;53350;52.210;5.160;2022-12-20T03:58:31;6.93;;;2.90;;
66523;SDS011;53350;52.210;5.160;2022-12-20T04:00:57;5.25;;;2.75;;
66523;SDS011;53350;52.210;5.160;2022-12-20T04:03:24;5.78;;;3.10;;
66523;SDS011;53350;52.210;5.160;2022-12-20T04:05:50;6.30;;;2.88;;
66523;SDS011;53350;52.210;5.160;2022-12-20T04:08:16;7.65;;;3.05;;
66523;SDS011;53350;52.210;5.160;2022-12-20T04:10:44;7.22;;;3.08;;
66523;SDS011;53350;52.210;5.160;2022-12-20T04:13:28;6.05;;;2.45;;
66523;SDS011;53350;52.210;5.160;2022-12-20T04:15:54;9.90;;;2.67;;
66523;SDS011;53350;52.210;5.160;2022-12-20T04:18:21;5.45;;;2.80;;
66523;SDS011;53350;52.210;5.160;2022-12-20T04:20:50;7.50;;;2.95;;
66523;SDS011;53350;52.210;5.160;2022-12-20T04:23:17;6.28;;;2.90;;
66523;SDS011;53350;52.210;5.160;2022-12-20T04:25:45;5.28;;;2.40;;
66523;SDS011;53350;52.210;5.160;2022-12-20T04:28:11;6.57;;;2.63;;
66523;SDS011;53350;52.210;5.160;2022-12-20T04:30:38;6.63;;;2.85;;
66523;SDS011;53350;52.210;5.160;2022-12-20T04:33:04;8.07;;;2.90;;
66523;SDS011;53350;52.210;5.160;2022-12-20T04:35:31;9.07;;;2.83;;
66523;SDS011;53350;52.210;5.160;2022-12-20T04:37:57;7.30;;;2.67;;
66523;SDS011;53350;52.210;5.160;2022-12-20T04:40:24;9.48;;;2.60;;
66523;SDS011;53350;52.210;5.160;2022-12-20T04:42:51;8.15;;;2.78;;
66523;SDS011;53350;52.210;5.160;2022-12-20T04:45:18;6.55;;;2.67;;
66523;SDS011;53350;52.210;5.160;2022-12-20T04:47:44;6.68;;;2.60;;
66523;SDS011;53350;52.210;5.160;2022-12-20T04:50:11;8.10;;;2.97;;
66523;SDS011;53350;52.210;5.160;2022-12-20T04:52:37;6.63;;;2.60;;
66523;SDS011;53350;52.210;5.160;2022-12-20T04:55:21;10.02;;;2.78;;
66523;SDS011;53350;52.210;5.160;2022-12-20T04:57:48;6.50;;;2.67;;
66523;SDS011;53350;52.210;5.160;2022-12-20T05:00:16;7.70;;;3.20;;
66523;SDS011;53350;52.210;5.160;2022-12-20T05:02:42;6.47;;;2.80;;
66523;SDS011;53350;52.210;5.160;2022-12-20T05:05:09;6.20;;;2.70;;
66523;SDS011;53350;52.210;5.160;2022-12-20T05:07:35;7.80;;;2.80;;
66523;SDS011;53350;52.210;5.160;2022-12-20T05:10:02;7.50;;;3.00;;
66523;SDS011;53350;52.210;5.160;2022-12-20T05:12:29;7.03;;;3.35;;
66523;SDS011;53350;52.210;5.160;2022-12-20T05:14:55;8.43;;;3.47;;
66523;SDS011;53350;52.210;5.160;2022-12-20T05:17:23;7.45;;;3.22;;
66523;SDS011;53350;52.210;5.160;2022-12-20T05:19:49;9.13;;;3.40;;
66523;SDS011;53350;52.210;5.160;2022-12-20T05:22:16;9.52;;;3.80;;
66523;SDS011;53350;52.210;5.160;2022-12-20T05:25:00;7.78;;;3.38;;
66523;SDS011;53350;52.210;5.160;2022-12-20T05:27:58;9.07;;;3.63;;
66523;SDS011;53350;52.210;5.160;2022-12-20T05:30:25;9.60;;;3.53;;
66523;SDS011;53350;52.210;5.160;2022-12-20T05:32:52;8.00;;;3.20;;
66523;SDS011;53350;52.210;5.160;2022-12-20T05:35:19;7.70;;;3.22;;
66523;SDS011;53350;52.210;5.160;2022-12-20T05:37:45;9.32;;;3.80;;
66523;SDS011;53350;52.210;5.160;2022-12-20T05:40:12;6.38;;;3.10;;
66523;SDS011;53350;52.210;5.160;2022-12-20T05:42:40;7.65;;;3.53;;
66523;SDS011;53350;52.210;5.160;2022-12-20T05:45:07;9.10;;;3.13;;
66523;SDS011;53350;52.210;5.160;2022-12-20T05:47:34;10.38;;;3.50;;
66523;SDS011;53350;52.210;5.160;2022-12-20T05:50:02;7.70;;;3.50;;
66523;SDS011;53350;52.210;5.160;2022-12-20T05:52:29;6.78;;;3.30;;
66523;SDS011;53350;52.210;5.160;2022-12-20T05:54:55;6.43;;;3.30;;
66523;SDS011;53350;52.210;5.160;2022-12-20T05:57:21;9.20;;;3.55;;
66523;SDS011;53350;52.210;5.160;2022-12-20T05:59:48;6.93;;;3.10;;
66523;SDS011;53350;52.210;5.160;2022-12-20T06:02:14;8.18;;;3.10;;
66523;SDS011;53350;52.210;5.160;2022-12-20T06:04:41;11.57;;;3.38;;
66523;SDS011;53350;52.210;5.160;2022-12-20T06:07:08;8.75;;;3.17;;
66523;SDS011;53350;52.210;5.160;2022-12-20T06:09:35;7.85;;;3.22;;
66523;SDS011;53350;52.210;5.160;2022-12-20T06:12:01;8.15;;;3.17;;
66523;SDS011;53350;52.210;5.160;2022-12-20T06:14:28;6.85;;;2.88;;
66523;SDS011;53350;52.210;5.160;2022-12-20T06:16:55;7.25;;;2.70;;
66523;SDS011;53350;52.210;5.160;2022-12-20T06:19:21;9.90;;;3.00;;
66523;SDS011;53350;52.210;5.160;2022-12-20T06:21:48;11.05;;;2.95;;
66523;SDS011;53350;52.210;5.160;2022-12-20T06:24:15;5.13;;;2.45;;
66523;SDS011;53350;52.210;5.160;2022-12-20T06:26:42;9.82;;;2.63;;
66523;SDS011;53350;52.210;5.160;2022-12-20T06:29:09;7.90;;;2.70;;
66523;SDS011;53350;52.210;5.160;2022-12-20T06:31:38;6.15;;;2.45;;
66523;SDS011;53350;52.210;5.160;2022-12-20T06:34:04;8.38;;;3.20;;
66523;SDS011;53350;52.210;5.160;2022-12-20T06:36:31;6.43;;;2.90;;
66523;SDS011;53350;52.210;5.160;2022-12-20T06:38:58;7.75;;;2.83;;
66523;SDS011;53350;52.210;5.160;2022-12-20T06:41:25;10.25;;;3.00;;
66523;SDS011;53350;52.210;5.160;2022-12-20T06:43:52;9.52;;;2.60;;
66523;SDS011;53350;52.210;5.160;2022-12-20T06:46:18;6.50;;;2.50;;
66523;SDS011;53350;52.210;5.160;2022-12-20T06:48:45;8.52;;;2.50;;
66523;SDS011;53350;52.210;5.160;2022-12-20T06:51:11;5.85;;;2.55;;
66523;SDS011;53350;52.210;5.160;2022-12-20T06:53:37;7.43;;;2.60;;
66523;SDS011;53350;52.210;5.160;2022-12-20T06:56:04;7.50;;;2.35;;
66523;SDS011;53350;52.210;5.160;2022-12-20T06:58:32;9.57;;;2.70;;
66523;SDS011;53350;52.210;5.160;2022-12-20T07:00:59;7.18;;;2.90;;
66523;SDS011;53350;52.210;5.160;2022-12-20T07:03:25;6.50;;;2.53;;
66523;SDS011;53350;52.210;5.160;2022-12-20T07:05:52;5.93;;;2.40;;
66523;SDS011;53350;52.210;5.160;2022-12-20T07:08:19;7.28;;;2.40;;
66523;SDS011;53350;52.210;5.160;2022-12-20T07:10:46;9.98;;;2.50;;
66523;SDS011;53350;52.210;5.160;2022-12-20T07:13:12;8.10;;;2.50;;
66523;SDS011;53350;52.210;5.160;2022-12-20T07:15:40;7.75;;;2.80;;
66523;SDS011;53350;52.210;5.160;2022-12-20T07:18:06;7.82;;;2.10;;
66523;SDS011;53350;52.210;5.160;2022-12-20T07:20:33;5.53;;;2.53;;
66523;SDS011;53350;52.210;5.160;2022-12-20T07:22:59;8.40;;;2.60;;
66523;SDS011;53350;52.210;5.160;2022-12-20T07:25:25;6.85;;;2.25;;
66523;SDS011;53350;52.210;5.160;2022-12-20T07:27:52;6.60;;;2.53;;
66523;SDS011;53350;52.210;5.160;2022-12-20T07:30:18;7.75;;;2.40;;
66523;SDS011;53350;52.210;5.160;2022-12-20T07:32:47;9.70;;;3.80;;
66523;SDS011;53350;52.210;5.160;2022-12-20T07:35:13;10.15;;;3.45;;
66523;SDS011;53350;52.210;5.160;2022-12-20T07:37:40;5.57;;;2.42;;
66523;SDS011;53350;52.210;5.160;2022-12-20T07:40:07;6.93;;;2.42;;
66523;SDS011;53350;52.210;5.160;2022-12-20T07:42:35;7.80;;;2.50;;
66523;SDS011;53350;52.210;5.160;2022-12-20T07:45:02;5.93;;;2.47;;
66523;SDS011;53350;52.210;5.160;2022-12-20T07:47:29;5.95;;;2.33;;
66523;SDS011;53350;52.210;5.160;2022-12-20T07:49:56;5.65;;;2.10;;
66523;SDS011;53350;52.210;5.160;2022-12-20T07:52:23;5.20;;;2.45;;
66523;SDS011;53350;52.210;5.160;2022-12-20T07:54:53;6.07;;;2.53;;
66523;SDS011;53350;52.210;5.160;2022-12-20T07:57:27;8.52;;;2.30;;
66523;SDS011;53350;52.210;5.160;2022-12-20T07:59:57;5.45;;;2.15;;
66523;SDS011;53350;52.210;5.160;2022-12-20T08:02:29;7.13;;;2.40;;
66523;SDS011;53350;52.210;5.160;2022-12-20T08:04:59;6.10;;;2.20;;
66523;SDS011;53350;52.210;5.160;2022-12-20T08:07:27;8.93;;;2.47;;
66523;SDS011;53350;52.210;5.160;2022-12-20T08:09:55;6.15;;;2.00;;
66523;SDS011;53350;52.210;5.160;2022-12-20T08:12:22;5.22;;;2.28;;
66523;SDS011;53350;52.210;5.160;2022-12-20T08:14:51;8.38;;;2.83;;
66523;SDS011;53350;52.210;5.160;2022-12-20T08:17:20;8.25;;;2.97;;
66523;SDS011;53350;52.210;5.160;2022-12-20T08:19:47;6.00;;;2.78;;
66523;SDS011;53350;52.210;5.160;2022-12-20T08:22:17;7.55;;;2.40;;
66523;SDS011;53350;52.210;5.160;2022-12-20T08:24:43;5.55;;;2.38;;
66523;SDS011;53350;52.210;5.160;2022-12-20T08:27:09;6.07;;;2.30;;
66523;SDS011;53350;52.210;5.160;2022-12-20T08:29:36;7.22;;;2.80;;
66523;SDS011;53350;52.210;5.160;2022-12-20T08:32:02;7.90;;;2.47;;
66523;SDS011;53350;52.210;5.160;2022-12-20T08:34:29;6.53;;;2.60;;
66523;SDS011;53350;52.210;5.160;2022-12-20T08:36:55;8.15;;;2.35;;
66523;SDS011;53350;52.210;5.160;2022-12-20T08:39:23;5.40;;;2.70;;
66523;SDS011;53350;52.210;5.160;2022-12-20T08:41:49;8.27;;;2.78;;
66523;SDS011;53350;52.210;5.160;2022-12-20T08:44:16;6.35;;;2.50;;
66523;SDS011;53350;52.210;5.160;2022-12-20T08:46:43;7.03;;;2.60;;
66523;SDS011;53350;52.210;5.160;2022-12-20T08:49:09;6.60;;;2.28;;
66523;SDS011;53350;52.210;5.160;2022-12-20T08:51:35;7.32;;;2.80;;
66523;SDS011;53350;52.210;5.160;2022-12-20T08:54:02;10.65;;;2.55;;
66523;SDS011;53350;52.210;5.160;2022-12-20T08:56:30;5.88;;;2.38;;
66523;SDS011;53350;52.210;5.160;2022-12-20T08:58:56;6.75;;;2.20;;
66523;SDS011;53350;52.210;5.160;2022-12-20T09:01:22;9.00;;;2.35;;
66523;SDS011;53350;52.210;5.160;2022-12-20T09:03:50;4.90;;;2.10;;
66523;SDS011;53350;52.210;5.160;2022-12-20T09:06:18;9.45;;;2.58;;
66523;SDS011;53350;52.210;5.160;2022-12-20T09:11:13;7.38;;;2.50;;
66523;SDS011;53350;52.210;5.160;2022-12-20T09:13:43;7.60;;;2.70;;
66523;SDS011;53350;52.210;5.160;2022-12-20T09:16:11;4.88;;;2.25;;
66523;SDS011;53350;52.210;5.160;2022-12-20T09:18:39;8.38;;;2.17;;
66523;SDS011;53350;52.210;5.160;2022-12-20T09:21:06;6.70;;;2.38;;
66523;SDS011;53350;52.210;5.160;2022-12-20T09:23:34;6.55;;;2.63;;
66523;SDS011;53350;52.210;5.160;2022-12-20T09:26:01;5.87;;;2.70;;
66523;SDS011;53350;52.210;5.160;2022-12-20T09:28:28;8.68;;;2.83;;
66523;SDS011;53350;52.210;5.160;2022-12-20T09:30:57;7.30;;;2.70;;
66523;SDS011;53350;52.210;5.160;2022-12-20T09:33:24;10.23;;;2.97;;
66523;SDS011;53350;52.210;5.160;2022-12-20T09:35:50;7.50;;;2.63;;
66523;SDS011;53350;52.210;5.160;2022-12-20T09:38:17;7.63;;;2.78;;
66523;SDS011;53350;52.210;5.160;2022-12-20T09:40:43;8.73;;;2.53;;
66523;SDS011;53350;52.210;5.160;2022-12-20T09:43:12;10.32;;;3.20;;
66523;SDS011;53350;52.210;5.160;2022-12-20T09:45:40;7.35;;;2.75;;
66523;SDS011;53350;52.210;5.160;2022-12-20T09:48:09;13.68;;;3.38;;
66523;SDS011;53350;52.210;5.160;2022-12-20T09:50:44;10.05;;;3.58;;
66523;SDS011;53350;52.210;5.160;2022-12-20T09:53:20;7.47;;;2.97;;
66523;SDS011;53350;52.210;5.160;2022-12-20T09:55:55;9.80;;;3.00;;
66523;SDS011;53350;52.210;5.160;2022-12-20T09:58:31;6.95;;;3.05;;
66523;SDS011;53350;52.210;5.160;2022-12-20T10:01:13;9.00;;;3.13;;
66523;SDS011;53350;52.210;5.160;2022-12-20T10:03:43;8.75;;;2.55;;
66523;SDS011;53350;52.210;5.160;2022-12-20T10:06:12;7.47;;;2.90;;
66523;SDS011;53350;52.210;5.160;2022-12-20T10:08:48;7.30;;;2.90;;
66523;SDS011;53350;52.210;5.160;2022-12-20T10:11:33;7.82;;;3.17;;
66523;SDS011;53350;52.210;5.160;2022-12-20T10:14:25;12.38;;;3.47;;
66523;SDS011;53350;52.210;5.160;2022-12-20T10:17:00;10.75;;;3.20;;
66523;SDS011;53350;52.210;5.160;2022-12-20T10:19:41;8.27;;;3.30;;
66523;SDS011;53350;52.210;5.160;2022-12-20T10:22:27;4.90;;;2.53;;
66523;SDS011;53350;52.210;5.160;2022-12-20T10:25:00;7.78;;;2.63;;
66523;SDS011;53350;52.210;5.160;2022-12-20T10:27:39;9.38;;;3.90;;
66523;SDS011;53350;52.210;5.160;2022-12-20T10:30:09;5.75;;;2.08;;
66523;SDS011;53350;52.210;5.160;2022-12-20T10:32:38;7.70;;;2.95;;
66523;SDS011;53350;52.210;5.160;2022-12-20T10:35:15;10.30;;;3.60;;
66523;SDS011;53350;52.210;5.160;2022-12-20T10:37:55;7.63;;;2.90;;
66523;SDS011;53350;52.210;5.160;2022-12-20T10:40:25;10.75;;;4.05;;
66523;SDS011;53350;52.210;5.160;2022-12-20T10:42:53;10.05;;;3.58;;
66523;SDS011;53350;52.210;5.160;2022-12-20T10:45:25;8.48;;;3.80;;
66523;SDS011;53350;52.210;5.160;2022-12-20T10:47:57;8.38;;;3.70;;
66523;SDS011;53350;52.210;5.160;2022-12-20T10:50:27;7.10;;;3.17;;
66523;SDS011;53350;52.210;5.160;2022-12-20T10:53:10;8.95;;;3.63;;
66523;SDS011;53350;52.210;5.160;2022-12-20T10:55:45;8.13;;;3.40;;
66523;SDS011;53350;52.210;5.160;2022-12-20T10:58:13;7.50;;;3.47;;
66523;SDS011;53350;52.210;5.160;2022-12-20T11:00:42;10.23;;;4.20;;
66523;SDS011;53350;52.210;5.160;2022-12-20T11:03:10;8.57;;;3.92;;
66523;SDS011;53350;52.210;5.160;2022-12-20T11:05:40;8.63;;;3.75;;
66523;SDS011;53350;52.210;5.160;2022-12-20T11:08:19;11.40;;;3.75;;
66523;SDS011;53350;52.210;5.160;2022-12-20T11:10:48;9.35;;;3.42;;
66523;SDS011;53350;52.210;5.160;2022-12-20T11:13:18;6.80;;;3.08;;
66523;SDS011;53350;52.210;5.160;2022-12-20T11:15:47;9.95;;;3.75;;
66523;SDS011;53350;52.210;5.160;2022-12-20T11:18:17;5.50;;;3.17;;
66523;SDS011;53350;52.210;5.160;2022-12-20T11:20:51;11.13;;;4.55;;
66523;SDS011;53350;52.210;5.160;2022-12-20T11:23:24;7.93;;;4.00;;
66523;SDS011;53350;52.210;5.160;2022-12-20T11:26:01;14.32;;;4.88;;
66523;SDS011;53350;52.210;5.160;2022-12-20T11:28:45;11.02;;;4.07;;
66523;SDS011;53350;52.210;5.160;2022-12-20T11:31:26;12.30;;;4.63;;
66523;SDS011;53350;52.210;5.160;2022-12-20T11:34:09;7.78;;;3.75;;
66523;SDS011;53350;52.210;5.160;2022-12-20T11:36:58;8.88;;;4.60;;
66523;SDS011;53350;52.210;5.160;2022-12-20T11:39:37;10.40;;;4.28;;
66523;SDS011;53350;52.210;5.160;2022-12-20T11:42:15;8.75;;;4.18;;
66523;SDS011;53350;52.210;5.160;2022-12-20T11:44:52;7.18;;;4.22;;
66523;SDS011;53350;52.210;5.160;2022-12-20T11:47:36;8.20;;;4.47;;
66523;SDS011;53350;52.210;5.160;2022-12-20T11:50:24;9.82;;;4.30;;
66523;SDS011;53350;52.210;5.160;2022-12-20T11:53:03;8.60;;;4.57;;
66523;SDS011;53350;52.210;5.160;2022-12-20T11:55:36;13.63;;;5.13;;
66523;SDS011;53350;52.210;5.160;2022-12-20T11:58:10;9.68;;;4.75;;
66523;SDS011;53350;52.210;5.160;2022-12-20T12:00:42;12.57;;;4.97;;
66523;SDS011;53350;52.210;5.160;2022-12-20T12:03:13;11.20;;;5.00;;
66523;SDS011;53350;52.210;5.160;2022-12-20T12:05:45;9.25;;;4.63;;
66523;SDS011;53350;52.210;5.160;2022-12-20T12:08:18;12.07;;;5.90;;
66523;SDS011;53350;52.210;5.160;2022-12-20T12:10:52;10.35;;;5.00;;
66523;SDS011;53350;52.210;5.160;2022-12-20T12:13:22;10.20;;;5.00;;
66523;SDS011;53350;52.210;5.160;2022-12-20T12:15:52;12.60;;;5.38;;
66523;SDS011;53350;52.210;5.160;2022-12-20T12:18:24;11.85;;;5.45;;
66523;SDS011;53350;52.210;5.160;2022-12-20T12:20:54;8.80;;;4.65;;
66523;SDS011;53350;52.210;5.160;2022-12-20T12:23:28;8.75;;;5.20;;
66523;SDS011;53350;52.210;5.160;2022-12-20T12:26:00;8.52;;;5.05;;
66523;SDS011;53350;52.210;5.160;2022-12-20T12:28:29;11.40;;;5.30;;
66523;SDS011;53350;52.210;5.160;2022-12-20T12:30:57;11.15;;;5.35;;
66523;SDS011;53350;52.210;5.160;2022-12-20T12:33:29;10.95;;;5.50;;
66523;SDS011;53350;52.210;5.160;2022-12-20T12:39:09;11.18;;;6.13;;
66523;SDS011;53350;52.210;5.160;2022-12-20T12:41:53;12.15;;;5.57;;
66523;SDS011;53350;52.210;5.160;2022-12-20T12:44:39;10.18;;;5.22;;
66523;SDS011;53350;52.210;5.160;2022-12-20T12:47:17;11.90;;;5.65;;
66523;SDS011;53350;52.210;5.160;2022-12-20T12:49:46;10.43;;;5.63;;
66523;SDS011;53350;52.210;5.160;2022-12-20T12:52:34;12.32;;;5.78;;
66523;SDS011;53350;52.210;5.160;2022-12-20T12:58:14;9.05;;;5.40;;
66523;SDS011;53350;52.210;5.160;2022-12-20T13:00:56;9.15;;;4.90;;
66523;SDS011;53350;52.210;5.160;2022-12-20T13:03:35;8.55;;;5.32;;
66523;SDS011;53350;52.210;5.160;2022-12-20T13:09:10;8.30;;;5.30;;
66523;SDS011;53350;52.210;5.160;2022-12-20T13:11:47;10.55;;;5.75;;
66523;SDS011;53350;52.210;5.160;2022-12-20T13:25:39;10.63;;;6.38;;
66523;SDS011;53350;52.210;5.160;2022-12-20T13:33:58;10.05;;;6.20;;
66523;SDS011;53350;52.210;5.160;2022-12-20T13:36:33;10.57;;;6.75;;
66523;SDS011;53350;52.210;5.160;2022-12-20T13:39:03;9.63;;;6.28;;
66523;SDS011;53350;52.210;5.160;2022-12-20T13:41:45;9.70;;;6.50;;
66523;SDS011;53350;52.210;5.160;2022-12-20T13:47:27;10.18;;;6.25;;
66523;SDS011;53350;52.210;5.160;2022-12-20T13:50:00;9.40;;;6.72;;
66523;SDS011;53350;52.210;5.160;2022-12-20T13:52:46;10.35;;;6.05;;
66523;SDS011;53350;52.210;5.160;2022-12-20T13:55:15;12.35;;;6.22;;
66523;SDS011;53350;52.210;5.160;2022-12-20T13:57:48;10.85;;;7.10;;
66523;SDS011;53350;52.210;5.160;2022-12-20T14:00:15;12.13;;;7.22;;
66523;SDS011;53350;52.210;5.160;2022-12-20T14:05:14;9.30;;;6.40;;
66523;SDS011;53350;52.210;5.160;2022-12-20T14:07:44;7.05;;;5.10;;
66523;SDS011;53350;52.210;5.160;2022-12-20T14:12:43;8.38;;;5.82;;
66523;SDS011;53350;52.210;5.160;2022-12-20T14:15:19;8.93;;;6.80;;
66523;SDS011;53350;52.210;5.160;2022-12-20T14:17:48;8.10;;;6.40;;
66523;SDS011;53350;52.210;5.160;2022-12-20T14:20:15;9.90;;;7.40;;
66523;SDS011;53350;52.210;5.160;2022-12-20T14:22:45;12.05;;;7.07;;
66523;SDS011;53350;52.210;5.160;2022-12-20T14:25:20;10.07;;;7.13;;
66523;SDS011;53350;52.210;5.160;2022-12-20T14:27:55;9.90;;;6.80;;
66523;SDS011;53350;52.210;5.160;2022-12-20T14:30:26;12.50;;;8.20;;
66523;SDS011;53350;52.210;5.160;2022-12-20T14:32:57;14.55;;;8.45;;
66523;SDS011;53350;52.210;5.160;2022-12-20T14:35:23;10.13;;;8.52;;
66523;SDS011;53350;52.210;5.160;2022-12-20T14:37:52;12.05;;;8.07;;
66523;SDS011;53350;52.210;5.160;2022-12-20T14:40:19;11.95;;;8.25;;
66523;SDS011;53350;52.210;5.160;2022-12-20T14:42:47;11.77;;;8.83;;
66523;SDS011;53350;52.210;5.160;2022-12-20T14:45:18;11.77;;;9.13;;
66523;SDS011;53350;52.210;5.160;2022-12-20T14:47:48;11.68;;;9.10;;
66523;SDS011;53350;52.210;5.160;2022-12-20T14:50:18;12.85;;;10.15;;
66523;SDS011;53350;52.210;5.160;2022-12-20T14:52:47;12.15;;;10.02;;
66523;SDS011;53350;52.210;5.160;2022-12-20T14:55:15;14.23;;;10.80;;
66523;SDS011;53350;52.210;5.160;2022-12-20T14:57:44;14.27;;;10.23;;
66523;SDS011;53350;52.210;5.160;2022-12-20T15:00:14;13.38;;;9.93;;
66523;SDS011;53350;52.210;5.160;2022-12-20T15:02:49;12.70;;;10.23;;
66523;SDS011;53350;52.210;5.160;2022-12-20T15:08:10;12.98;;;10.57;;
66523;SDS011;53350;52.210;5.160;2022-12-20T15:10:37;16.50;;;11.23;;
66523;SDS011;53350;52.210;5.160;2022-12-20T15:13:07;14.70;;;11.05;;
66523;SDS011;53350;52.210;5.160;2022-12-20T15:15:37;14.38;;;9.93;;
66523;SDS011;53350;52.210;5.160;2022-12-20T15:18:06;13.73;;;10.60;;
66523;SDS011;53350;52.210;5.160;2022-12-20T15:20:36;13.57;;;10.50;;
66523;SDS011;53350;52.210;5.160;2022-12-20T15:23:03;12.40;;;9.88;;
66523;SDS011;53350;52.210;5.160;2022-12-20T15:25:30;14.05;;;10.85;;
66523;SDS011;53350;52.210;5.160;2022-12-20T15:27:59;14.10;;;11.23;;
66523;SDS011;53350;52.210;5.160;2022-12-20T15:30:25;14.38;;;10.50;;
66523;SDS011;53350;52.210;5.160;2022-12-20T15:32:51;16.40;;;10.20;;
66523;SDS011;53350;52.210;5.160;2022-12-20T15:35:18;15.00;;;10.65;;
66523;SDS011;53350;52.210;5.160;2022-12-20T15:37:44;15.38;;;10.52;;
66523;SDS011;53350;52.210;5.160;2022-12-20T15:40:13;13.27;;;9.55;;
66523;SDS011;53350;52.210;5.160;2022-12-20T15:42:40;13.25;;;10.75;;
66523;SDS011;53350;52.210;5.160;2022-12-20T15:45:10;13.88;;;11.52;;
66523;SDS011;53350;52.210;5.160;2022-12-20T15:47:38;15.02;;;9.80;;